createdAt,value
2023-03-25T00:01:33.096Z,15.23
2023-03-25T00:08:13.625Z,15.20
2023-03-25T00:10:42.831Z,15.16
2023-03-25T00:13:13.678Z,15.14
2023-03-25T00:15:48.176Z,15.10
2023-03-25T00:18:19.395Z,15.07
2023-03-25T00:20:51.023Z,15.05
2023-03-25T00:23:21.464Z,15.02
2023-03-25T00:25:50.136Z,14.99
2023-03-25T00:28:18.875Z,14.96
2023-03-25T00:30:47.829Z,14.92
2023-03-25T00:33:18.327Z,14.90
2023-03-25T00:35:52.869Z,14.86
2023-03-25T00:38:24.650Z,14.85
2023-03-25T00:40:53.305Z,14.83
2023-03-25T00:43:21.770Z,14.81
2023-03-25T00:45:50.103Z,14.79
2023-03-25T00:48:23.979Z,14.78
2023-03-25T00:50:52.062Z,14.77
2023-03-25T00:53:24.448Z,14.74
2023-03-25T00:55:58.246Z,14.73
2023-03-25T00:58:26.482Z,14.72
2023-03-25T01:00:56.693Z,14.71
2023-03-25T01:03:26.582Z,14.70
2023-03-25T01:05:58.044Z,14.70
2023-03-25T01:08:29.799Z,14.69
2023-03-25T01:11:01.375Z,14.67
2023-03-25T01:13:29.581Z,14.65
2023-03-25T01:15:57.972Z,14.63
2023-03-25T01:18:26.323Z,14.62
2023-03-25T01:20:54.579Z,14.59
2023-03-25T01:23:22.890Z,14.57
2023-03-25T01:25:51.342Z,14.54
2023-03-25T01:28:20.783Z,14.52
2023-03-25T01:30:48.930Z,14.50
2023-03-25T01:33:17.844Z,14.48
2023-03-25T01:35:46.161Z,14.47
2023-03-25T01:38:14.254Z,14.45
2023-03-25T01:40:46.097Z,14.44
2023-03-25T01:43:15.474Z,14.42
2023-03-25T01:45:45.373Z,14.40
2023-03-25T01:48:26.567Z,14.38
2023-03-25T01:50:59.144Z,14.37
2023-03-25T01:53:30.917Z,14.36
2023-03-25T01:56:02.951Z,14.35
2023-03-25T01:58:31.330Z,14.35
2023-03-25T02:01:03.475Z,14.35
2023-03-25T02:03:37.423Z,14.35
2023-03-25T02:06:10.515Z,14.36
2023-03-25T02:08:39.963Z,14.36
2023-03-25T02:11:11.076Z,14.37
2023-03-25T02:13:39.780Z,14.37
2023-03-25T02:16:20.560Z,14.37
2023-03-25T02:19:11.958Z,14.37
2023-03-25T02:21:52.895Z,14.36
2023-03-25T02:24:43.761Z,14.36
2023-03-25T02:27:42.168Z,14.36
2023-03-25T02:30:29.175Z,14.37
2023-03-25T02:33:23.188Z,14.36
2023-03-25T02:36:13.271Z,14.35
2023-03-25T02:39:00.038Z,14.35
2023-03-25T02:41:37.357Z,14.33
2023-03-25T02:44:25.060Z,14.31
2023-03-25T02:46:55.574Z,14.30
2023-03-25T02:49:36.429Z,14.28
2023-03-25T02:52:20.562Z,14.27
2023-03-25T02:54:49.231Z,14.26
2023-03-25T02:57:19.508Z,14.24
2023-03-25T02:59:48.975Z,14.24
2023-03-25T03:02:19.506Z,14.23
2023-03-25T03:04:49.464Z,14.22
2023-03-25T03:07:30.803Z,14.22
2023-03-25T03:10:26.899Z,14.20
2023-03-25T03:13:08.988Z,14.18
2023-03-25T03:15:59.471Z,14.16
2023-03-25T03:18:34.458Z,14.15
2023-03-25T03:21:23.402Z,14.15
2023-03-25T03:24:15.247Z,14.13
2023-03-25T03:26:48.675Z,14.11
2023-03-25T03:29:19.490Z,14.10
2023-03-25T03:32:05.088Z,14.08
2023-03-25T03:34:47.244Z,14.06
2023-03-25T03:37:21.389Z,14.02
2023-03-25T03:39:49.775Z,13.98
2023-03-25T03:42:23.575Z,13.94
2023-03-25T03:44:58.378Z,13.89
2023-03-25T03:47:29.296Z,13.85
2023-03-25T03:50:09.328Z,13.81
2023-03-25T03:52:40.331Z,13.77
2023-03-25T03:55:53.164Z,13.73
2023-03-25T03:58:43.947Z,13.69
2023-03-25T04:01:15.387Z,13.67
2023-03-25T04:03:53.458Z,13.66
2023-03-25T04:06:35.550Z,13.63
2023-03-25T04:09:42.026Z,13.62
2023-03-25T04:12:18.776Z,13.61
2023-03-25T04:14:48.012Z,13.61
2023-03-25T04:17:17.743Z,13.61
2023-03-25T04:19:48.930Z,13.61
2023-03-25T04:22:19.832Z,13.60
2023-03-25T04:24:50.095Z,13.61
2023-03-25T04:27:18.943Z,13.62
2023-03-25T04:29:47.855Z,13.61
2023-03-25T04:32:17.852Z,13.61
2023-03-25T04:34:47.128Z,13.60
2023-03-25T04:37:16.556Z,13.59
2023-03-25T04:39:44.781Z,13.57
2023-03-25T04:42:17.977Z,13.56
2023-03-25T04:44:46.723Z,13.54
2023-03-25T04:47:16.416Z,13.52
2023-03-25T04:49:45.996Z,13.51
2023-03-25T04:52:14.806Z,13.50
2023-03-25T04:54:46.493Z,13.48
2023-03-25T04:57:15.484Z,13.47
2023-03-25T04:59:44.111Z,13.46
2023-03-25T05:02:13.714Z,13.44
2023-03-25T05:04:43.133Z,13.43
2023-03-25T05:07:16.857Z,13.42
2023-03-25T05:09:46.304Z,13.41
2023-03-25T05:12:14.330Z,13.41
2023-03-25T05:14:44.631Z,13.42
2023-03-25T05:17:13.445Z,13.43
2023-03-25T05:19:43.917Z,13.44
2023-03-25T05:22:13.203Z,13.46
2023-03-25T05:24:45.359Z,13.47
2023-03-25T05:27:20.382Z,13.48
2023-03-25T05:29:48.592Z,13.49
2023-03-25T05:32:17.913Z,13.49
2023-03-25T05:34:46.906Z,13.48
2023-03-25T05:37:15.178Z,13.47
2023-03-25T05:39:48.242Z,13.45
2023-03-25T05:42:23.020Z,13.43
2023-03-25T05:44:55.159Z,13.40
2023-03-25T05:47:24.546Z,13.39
2023-03-25T05:49:53.092Z,13.39
2023-03-25T05:52:24.770Z,13.39
2023-03-25T05:54:52.990Z,13.39
2023-03-25T05:57:22.460Z,13.37
2023-03-25T05:59:52.352Z,13.37
2023-03-25T06:02:20.696Z,13.36
2023-03-25T06:04:50.599Z,13.35
2023-03-25T06:07:22.511Z,13.34
2023-03-25T06:09:55.984Z,13.33
2023-03-25T06:12:27.779Z,13.34
2023-03-25T06:14:55.981Z,13.35
2023-03-25T06:17:24.447Z,13.35
2023-03-25T06:19:52.581Z,13.35
2023-03-25T06:22:22.241Z,13.36
2023-03-25T06:24:53.277Z,13.35
2023-03-25T06:27:22.128Z,13.35
2023-03-25T06:29:51.044Z,13.35
2023-03-25T06:32:19.627Z,13.34
2023-03-25T06:34:47.802Z,13.30
2023-03-25T06:37:16.139Z,13.26
2023-03-25T06:39:50.016Z,13.22
2023-03-25T06:42:24.102Z,13.19
2023-03-25T06:45:09.200Z,13.16
2023-03-25T06:47:46.146Z,13.14
2023-03-25T06:50:14.392Z,13.14
2023-03-25T06:52:42.508Z,13.14
2023-03-25T06:55:12.240Z,13.15
2023-03-25T06:57:42.287Z,13.16
2023-03-25T07:00:14.814Z,13.17
2023-03-25T07:02:48.837Z,13.18
2023-03-25T07:05:17.286Z,13.19
2023-03-25T07:07:45.798Z,13.21
2023-03-25T07:10:13.983Z,13.21
2023-03-25T07:12:42.288Z,13.22
2023-03-25T07:15:13.152Z,13.26
2023-03-25T07:17:43.372Z,13.29
2023-03-25T07:20:15.798Z,13.33
2023-03-25T07:22:46.331Z,13.36
2023-03-25T07:25:15.832Z,13.40
2023-03-25T07:27:44.405Z,13.44
2023-03-25T07:30:15.905Z,13.49
2023-03-25T07:32:46.299Z,13.55
2023-03-25T07:35:15.516Z,13.65
2023-03-25T07:37:45.623Z,13.74
2023-03-25T07:40:13.742Z,13.84
2023-03-25T07:42:42.010Z,13.92
2023-03-25T07:45:43.596Z,14.01
2023-03-25T07:48:16.921Z,14.09
2023-03-25T07:50:46.227Z,14.18
2023-03-25T07:53:16.406Z,14.24
2023-03-25T07:55:45.777Z,14.30
2023-03-25T07:58:14.386Z,14.35
2023-03-25T08:00:42.711Z,14.35
2023-03-25T08:03:13.267Z,14.34
2023-03-25T08:05:47.225Z,14.36
2023-03-25T08:08:15.675Z,14.38
2023-03-25T08:10:44.369Z,14.41
2023-03-25T08:13:12.866Z,14.47
2023-03-25T08:15:41.585Z,14.51
2023-03-25T08:18:09.786Z,14.52
2023-03-25T08:20:38.149Z,14.57
2023-03-25T08:23:10.748Z,14.63
2023-03-25T08:25:39.360Z,14.71
2023-03-25T08:28:08.637Z,14.79
2023-03-25T08:30:38.585Z,14.87
2023-03-25T08:33:07.525Z,14.97
2023-03-25T08:35:56.721Z,15.07
2023-03-25T08:38:25.662Z,15.15
2023-03-25T08:40:56.098Z,15.22
2023-03-25T08:43:27.875Z,15.27
2023-03-25T08:45:59.395Z,15.29
2023-03-25T08:48:27.602Z,15.27
2023-03-25T08:50:59.565Z,15.23
2023-03-25T08:53:28.143Z,15.21
2023-03-25T08:55:57.502Z,15.22
2023-03-25T08:58:26.004Z,15.26
2023-03-25T09:00:56.086Z,15.30
2023-03-25T09:03:24.639Z,15.33
2023-03-25T09:05:55.876Z,15.38
2023-03-25T09:08:24.833Z,15.42
2023-03-25T09:10:55.416Z,15.43
2023-03-25T09:13:26.873Z,15.45
2023-03-25T09:15:55.218Z,15.47
2023-03-25T09:18:28.283Z,15.48
2023-03-25T09:21:00.196Z,15.49
2023-03-25T09:23:28.886Z,15.50
2023-03-25T09:26:00.497Z,15.51
2023-03-25T09:28:29.996Z,15.52
2023-03-25T09:30:58.476Z,15.56
2023-03-25T09:33:28.065Z,15.60
2023-03-25T09:35:56.588Z,15.63
2023-03-25T09:38:28.445Z,15.65
2023-03-25T09:40:56.900Z,15.69
2023-03-25T09:44:02.700Z,15.76
2023-03-25T09:46:30.965Z,15.83
2023-03-25T09:48:59.690Z,15.86
2023-03-25T09:51:36.137Z,15.87
2023-03-25T09:54:27.944Z,15.85
2023-03-25T09:56:58.075Z,15.81
2023-03-25T09:59:42.950Z,15.79
2023-03-25T10:02:42.061Z,15.77
2023-03-25T10:05:25.939Z,15.76
2023-03-25T10:08:28.141Z,15.78
2023-03-25T10:11:06.817Z,15.77
2023-03-25T10:13:43.982Z,15.75
2023-03-25T10:17:01.955Z,15.74
2023-03-25T10:19:39.923Z,15.74
2023-03-25T10:22:19.163Z,15.75
2023-03-25T10:24:49.833Z,15.74
2023-03-25T10:27:26.869Z,15.73
2023-03-25T10:30:24.946Z,15.75
2023-03-25T10:32:57.141Z,15.77
2023-03-25T10:35:30.141Z,15.78
2023-03-25T10:38:13.838Z,15.79
2023-03-25T10:40:50.331Z,15.79
2023-03-25T10:43:26.533Z,15.81
2023-03-25T10:45:57.935Z,15.83
2023-03-25T10:48:28.178Z,15.85
2023-03-25T10:51:09.610Z,15.85
2023-03-25T10:53:40.403Z,15.87
2023-03-25T10:56:17.139Z,15.88
2023-03-25T10:58:47.189Z,15.89
2023-03-25T11:01:21.059Z,15.91
2023-03-25T11:04:11.937Z,15.90
2023-03-25T11:06:42.241Z,15.90
2023-03-25T11:09:30.746Z,15.91
2023-03-25T11:12:05.329Z,15.92
2023-03-25T11:14:37.723Z,15.94
2023-03-25T11:17:25.764Z,15.96
2023-03-25T11:20:00.874Z,15.99
2023-03-25T11:22:30.717Z,16.05
2023-03-25T11:25:07.133Z,16.12
2023-03-25T11:27:48.379Z,16.20
2023-03-25T11:30:19.456Z,16.30
2023-03-25T11:32:59.879Z,16.37
2023-03-25T11:35:30.481Z,16.46
2023-03-25T11:38:00.498Z,16.53
2023-03-25T11:40:29.742Z,16.59
2023-03-25T11:43:00.505Z,16.65
2023-03-25T11:45:39.241Z,16.70
2023-03-25T11:48:16.940Z,16.73
2023-03-25T11:50:54.549Z,16.75
2023-03-25T11:53:27.339Z,16.74
2023-03-25T11:55:56.472Z,16.72
2023-03-25T11:58:33.729Z,16.69
2023-03-25T12:01:11.304Z,16.67
2023-03-25T12:03:39.892Z,16.67
2023-03-25T12:06:19.505Z,16.68
2023-03-25T12:08:56.718Z,16.69
2023-03-25T12:11:46.972Z,16.70
2023-03-25T12:14:30.485Z,16.70
2023-03-25T12:17:11.005Z,16.69
2023-03-25T12:19:42.813Z,16.69
2023-03-25T12:22:45.316Z,16.69
2023-03-25T12:25:29.290Z,16.69
2023-03-25T12:28:19.630Z,16.69
2023-03-25T12:31:07.644Z,16.68
2023-03-25T12:33:54.919Z,16.66
2023-03-25T12:36:48.382Z,16.63
2023-03-25T12:39:42.643Z,16.62
2023-03-25T12:42:59.739Z,16.59
2023-03-25T12:45:53.496Z,16.59
2023-03-25T12:48:27.954Z,16.57
2023-03-25T12:51:22.123Z,16.55
2023-03-25T12:54:02.731Z,16.51
2023-03-25T12:56:44.588Z,16.45
2023-03-25T12:59:16.430Z,16.40
2023-03-25T13:02:30.313Z,16.36
2023-03-25T13:05:04.790Z,16.34
2023-03-25T13:08:01.808Z,16.34
2023-03-25T13:10:35.773Z,16.32
2023-03-25T13:13:09.454Z,16.30
2023-03-25T13:15:42.049Z,16.28
2023-03-25T13:18:21.846Z,16.26
2023-03-25T13:21:00.570Z,16.25
2023-03-25T13:23:29.680Z,16.27
2023-03-25T13:26:03.518Z,16.28
2023-03-25T13:28:49.614Z,16.29
2023-03-25T13:31:20.224Z,16.30
2023-03-25T13:34:23.001Z,16.30
2023-03-25T13:37:10.082Z,16.31
2023-03-25T13:39:55.790Z,16.32
2023-03-25T13:42:37.387Z,16.33
2023-03-25T13:45:05.984Z,16.36
2023-03-25T13:47:40.330Z,16.38
2023-03-25T13:50:23.516Z,16.42
2023-03-25T13:52:54.429Z,16.46
2023-03-25T13:55:34.039Z,16.53
2023-03-25T13:58:11.326Z,16.60
2023-03-25T14:01:02.045Z,16.65
2023-03-25T14:03:36.421Z,16.69
2023-03-25T14:06:25.628Z,16.74
2023-03-25T14:09:32.022Z,16.78
2023-03-25T14:12:12.080Z,16.79
2023-03-25T14:14:54.016Z,16.78
2023-03-25T14:17:23.063Z,16.76
2023-03-25T14:19:55.465Z,16.74
2023-03-25T14:22:26.417Z,16.75
2023-03-25T14:24:54.820Z,16.74
2023-03-25T14:27:34.929Z,16.75
2023-03-25T14:30:07.293Z,16.74
2023-03-25T14:32:36.637Z,16.73
2023-03-25T14:35:35.057Z,16.73
2023-03-25T14:38:09.654Z,16.73
2023-03-25T14:41:01.494Z,16.73
2023-03-25T14:43:40.297Z,16.72
2023-03-25T14:46:11.651Z,16.70
2023-03-25T14:48:46.098Z,16.69
2023-03-25T14:51:26.107Z,16.69
2023-03-25T14:54:03.489Z,16.69
2023-03-25T14:56:42.976Z,16.67
2023-03-25T14:59:17.101Z,16.67
2023-03-25T15:01:46.496Z,16.65
2023-03-25T15:04:57.208Z,16.64
2023-03-25T15:07:59.107Z,16.63
2023-03-25T15:10:36.757Z,16.59
2023-03-25T15:13:06.388Z,16.50
2023-03-25T15:15:44.469Z,16.41
2023-03-25T15:18:34.613Z,16.36
2023-03-25T15:21:09.383Z,16.32
2023-03-25T15:23:47.664Z,16.29
2023-03-25T15:26:21.264Z,16.23
2023-03-25T15:29:30.876Z,16.17
2023-03-25T15:32:13.696Z,16.13
2023-03-25T15:35:01.071Z,16.10
2023-03-25T15:38:07.204Z,16.06
2023-03-25T15:40:58.027Z,16.01
2023-03-25T15:43:42.538Z,15.96
2023-03-25T15:46:37.375Z,15.89
2023-03-25T15:49:14.959Z,15.84
2023-03-25T15:52:25.810Z,15.79
2023-03-25T15:54:57.392Z,15.74
2023-03-25T15:57:44.338Z,15.71
2023-03-25T16:00:30.142Z,15.70
2023-03-25T16:03:02.579Z,15.70
2023-03-25T16:05:31.530Z,15.70
2023-03-25T16:08:01.588Z,15.71
2023-03-25T16:10:33.393Z,15.74
2023-03-25T16:13:11.512Z,15.78
2023-03-25T16:15:39.842Z,15.79
2023-03-25T16:18:09.602Z,15.78
2023-03-25T16:20:38.048Z,15.76
2023-03-25T16:23:07.133Z,15.74
2023-03-25T16:25:38.363Z,15.72
2023-03-25T16:28:14.801Z,15.71
2023-03-25T16:30:44.483Z,15.69
2023-03-25T16:33:14.977Z,15.68
2023-03-25T16:35:57.125Z,15.67
2023-03-25T16:38:25.924Z,15.66
2023-03-25T16:41:11.357Z,15.64
2023-03-25T16:43:39.633Z,15.64
2023-03-25T16:46:09.111Z,15.62
2023-03-25T16:48:41.720Z,15.62
2023-03-25T16:51:29.345Z,15.61
2023-03-25T16:54:00.817Z,15.61
2023-03-25T16:56:30.374Z,15.59
2023-03-25T16:59:06.413Z,15.55
2023-03-25T17:01:45.196Z,15.52
2023-03-25T17:04:43.504Z,15.47
2023-03-25T17:07:15.762Z,15.43
2023-03-25T17:09:45.167Z,15.37
2023-03-25T17:12:17.274Z,15.30
2023-03-25T17:14:47.062Z,15.25
2023-03-25T17:17:21.255Z,15.19
2023-03-25T17:19:51.805Z,15.13
2023-03-25T17:22:36.477Z,15.12
2023-03-25T17:25:23.538Z,15.13
2023-03-25T17:27:58.215Z,15.12
2023-03-25T17:30:43.471Z,15.10
2023-03-25T17:33:19.511Z,15.08
2023-03-25T17:35:52.933Z,15.05
2023-03-25T17:38:28.376Z,15.01
2023-03-25T17:41:09.312Z,15.00
2023-03-25T17:43:48.074Z,14.98
2023-03-25T17:46:25.885Z,14.95
2023-03-25T17:48:57.587Z,14.91
2023-03-25T17:51:26.899Z,14.87
2023-03-25T17:53:56.163Z,14.85
2023-03-25T17:56:26.704Z,14.82
2023-03-25T17:59:02.935Z,14.82
2023-03-25T18:01:32.696Z,14.80
2023-03-25T18:04:01.290Z,14.79
2023-03-25T18:06:35.552Z,14.79
2023-03-25T18:09:04.958Z,14.78
2023-03-25T18:11:33.017Z,14.76
2023-03-25T18:14:01.683Z,14.77
2023-03-25T18:16:30.194Z,14.76
2023-03-25T18:18:58.335Z,14.73
2023-03-25T18:21:27.499Z,14.72
2023-03-25T18:23:56.118Z,14.74
2023-03-25T18:26:24.282Z,14.76
2023-03-25T18:28:52.594Z,14.77
2023-03-25T18:31:23.539Z,14.77
2023-03-25T18:33:51.758Z,14.77
2023-03-25T18:36:20.170Z,14.76
2023-03-25T18:38:48.981Z,14.76
2023-03-25T18:41:17.655Z,14.74
2023-03-25T18:43:48.753Z,14.73
2023-03-25T18:46:18.058Z,14.73
2023-03-25T18:48:48.610Z,14.72
2023-03-25T18:51:16.961Z,14.71
2023-03-25T18:53:48.964Z,14.71
2023-03-25T18:56:19.631Z,14.72
2023-03-25T18:58:53.051Z,14.73
2023-03-25T19:01:22.010Z,14.73
2023-03-25T19:03:52.596Z,14.64
2023-03-25T19:06:21.564Z,14.54
2023-03-25T19:08:51.718Z,14.40
2023-03-25T19:11:21.997Z,14.26
2023-03-25T19:13:58.495Z,14.12
2023-03-25T19:16:27.409Z,14.01
2023-03-25T19:18:55.747Z,13.90
2023-03-25T19:21:24.187Z,13.80
2023-03-25T19:23:52.927Z,13.73
2023-03-25T19:26:21.178Z,13.69
2023-03-25T19:28:50.922Z,13.64
2023-03-25T19:31:19.320Z,13.61
2023-03-25T19:33:56.485Z,13.58
2023-03-25T19:36:25.900Z,13.56
2023-03-25T19:38:56.401Z,13.53
2023-03-25T19:41:27.039Z,13.48
2023-03-25T19:43:55.465Z,13.39
2023-03-25T19:46:24.618Z,13.32
2023-03-25T19:48:53.353Z,13.26
2023-03-25T19:51:21.555Z,13.23
2023-03-25T19:53:52.352Z,13.24
2023-03-25T19:56:21.679Z,13.26
2023-03-25T19:58:49.844Z,13.29
2023-03-25T20:01:18.279Z,13.32
2023-03-25T20:03:47.969Z,13.33
2023-03-25T20:06:16.071Z,13.34
2023-03-25T20:08:46.105Z,13.35
2023-03-25T20:11:15.548Z,13.34
2023-03-25T20:13:54.750Z,13.33
2023-03-25T20:16:25.687Z,13.33
2023-03-25T20:18:54.136Z,13.33
2023-03-25T20:21:24.896Z,13.33
2023-03-25T20:23:53.340Z,13.31
2023-03-25T20:26:21.527Z,13.30
2023-03-25T20:28:49.657Z,13.30
2023-03-25T20:31:20.156Z,13.29
2023-03-25T20:33:48.658Z,13.28
2023-03-25T20:36:17.789Z,13.27
2023-03-25T20:38:56.466Z,13.26
2023-03-25T20:41:26.485Z,13.24
2023-03-25T20:43:54.702Z,13.21
2023-03-25T20:46:27.614Z,13.17
2023-03-25T20:48:56.540Z,13.16
2023-03-25T20:51:25.699Z,13.14
2023-03-25T20:53:54.274Z,13.10
2023-03-25T20:56:22.795Z,13.06
2023-03-25T20:58:51.367Z,13.00
2023-03-25T21:01:21.476Z,12.94
2023-03-25T21:03:52.104Z,12.85
2023-03-25T21:06:24.538Z,12.74
2023-03-25T21:08:54.906Z,12.63
2023-03-25T21:11:23.061Z,12.53
2023-03-25T21:13:51.614Z,12.46
2023-03-25T21:16:20.792Z,12.40
2023-03-25T21:18:50.386Z,12.34
2023-03-25T21:21:19.865Z,12.29
2023-03-25T21:23:49.350Z,12.24
2023-03-25T21:26:18.884Z,12.20
2023-03-25T21:28:48.689Z,12.17
2023-03-25T21:31:21.661Z,12.14
2023-03-25T21:33:51.425Z,12.09
2023-03-25T21:36:28.646Z,12.05
2023-03-25T21:39:04.632Z,11.99
2023-03-25T21:41:35.066Z,11.95
2023-03-25T21:44:05.216Z,11.91
2023-03-25T21:46:34.089Z,11.85
2023-03-25T21:49:04.072Z,11.80
2023-03-25T21:51:32.553Z,11.75
2023-03-25T21:54:00.941Z,11.71
2023-03-25T21:56:31.404Z,11.67
2023-03-25T21:59:01.973Z,11.62
2023-03-25T22:01:32.715Z,11.59
2023-03-25T22:04:01.489Z,11.57
2023-03-25T22:06:31.616Z,11.53
2023-03-25T22:09:05.662Z,11.51
2023-03-25T22:11:35.749Z,11.48
2023-03-25T22:14:05.727Z,11.46
2023-03-25T22:16:36.510Z,11.46
2023-03-25T22:19:06.408Z,11.43
2023-03-25T22:21:37.025Z,11.41
2023-03-25T22:24:08.010Z,11.39
2023-03-25T22:26:39.399Z,11.37
2023-03-25T22:29:09.805Z,11.35
2023-03-25T22:31:39.830Z,11.32
2023-03-25T22:34:12.942Z,11.31
2023-03-25T22:36:46.452Z,11.28
2023-03-25T22:39:15.179Z,11.24
2023-03-25T22:41:45.098Z,11.20
2023-03-25T22:44:17.164Z,11.16
2023-03-25T22:46:48.728Z,11.13
2023-03-25T22:49:17.278Z,11.10
2023-03-25T22:51:45.562Z,11.06
2023-03-25T22:54:13.942Z,11.01
2023-03-25T22:56:43.733Z,10.96
2023-03-25T22:59:12.814Z,10.93
2023-03-25T23:01:41.837Z,10.90
2023-03-25T23:04:10.508Z,10.87
2023-03-25T23:06:38.810Z,10.84
2023-03-25T23:09:09.964Z,10.83
2023-03-25T23:11:38.977Z,10.82
2023-03-25T23:14:09.104Z,10.81
2023-03-25T23:16:39.211Z,10.80
2023-03-25T23:19:09.578Z,10.78
2023-03-25T23:21:40.685Z,10.77
2023-03-25T23:24:08.847Z,10.77
2023-03-25T23:26:39.459Z,10.76
2023-03-25T23:29:10.160Z,10.76
2023-03-25T23:31:41.423Z,10.74
2023-03-25T23:34:12.657Z,10.73
2023-03-25T23:36:41.061Z,10.71
2023-03-25T23:39:11.423Z,10.70
2023-03-25T23:41:44.086Z,10.70
2023-03-25T23:44:13.282Z,10.69
2023-03-25T23:46:43.636Z,10.69
2023-03-25T23:49:11.876Z,10.68
2023-03-25T23:51:40.940Z,10.68
2023-03-25T23:54:11.742Z,10.67
2023-03-25T23:56:40.002Z,10.66
2023-03-25T23:59:09.399Z,10.65
